sensor_id;sensor_type;location;lat;lon;timestamp;temperature;humidity
70456;DHT22;57916;51.996;5.180;2023-01-30T00:01:42;10.00;76.50
70456;DHT22;57916;51.996;5.180;2023-01-30T00:04:11;10.00;76.40
70456;DHT22;57916;51.996;5.180;2023-01-30T00:06:40;10.00;76.40
70456;DHT22;57916;51.996;5.180;2023-01-30T00:09:12;10.10;76.20
70456;DHT22;57916;51.996;5.180;2023-01-30T00:11:40;10.10;76.20
70456;DHT22;57916;51.996;5.180;2023-01-30T00:14:08;10.10;76.20
70456;DHT22;57916;51.996;5.180;2023-01-30T00:16:34;10.20;76.20
70456;DHT22;57916;51.996;5.180;2023-01-30T00:19:02;10.20;76.30
70456;DHT22;57916;51.996;5.180;2023-01-30T00:21:29;10.20;76.20
70456;DHT22;57916;51.996;5.180;2023-01-30T00:23:55;10.30;76.40
70456;DHT22;57916;51.996;5.180;2023-01-30T00:26:22;10.30;76.30
70456;DHT22;57916;51.996;5.180;2023-01-30T00:28:49;10.40;76.40
70456;DHT22;57916;51.996;5.180;2023-01-30T00:31:16;10.40;76.40
70456;DHT22;57916;51.996;5.180;2023-01-30T00:33:43;10.40;76.30
70456;DHT22;57916;51.996;5.180;2023-01-30T00:36:10;10.50;76.40
70456;DHT22;57916;51.996;5.180;2023-01-30T00:38:37;10.50;76.50
70456;DHT22;57916;51.996;5.180;2023-01-30T00:41:05;10.50;76.40
70456;DHT22;57916;51.996;5.180;2023-01-30T00:43:32;10.50;76.50
70456;DHT22;57916;51.996;5.180;2023-01-30T00:46:38;10.50;76.50
70456;DHT22;57916;51.996;5.180;2023-01-30T00:49:25;10.50;76.40
70456;DHT22;57916;51.996;5.180;2023-01-30T00:51:51;10.60;76.30
70456;DHT22;57916;51.996;5.180;2023-01-30T00:54:18;10.60;76.20
70456;DHT22;57916;51.996;5.180;2023-01-30T00:56:45;10.60;76.10
70456;DHT22;57916;51.996;5.180;2023-01-30T00:59:12;10.60;76.00
70456;DHT22;57916;51.996;5.180;2023-01-30T01:01:39;10.60;76.00
70456;DHT22;57916;51.996;5.180;2023-01-30T01:04:06;10.60;76.00
70456;DHT22;57916;51.996;5.180;2023-01-30T01:06:36;10.70;76.20
70456;DHT22;57916;51.996;5.180;2023-01-30T01:09:04;10.70;76.00
70456;DHT22;57916;51.996;5.180;2023-01-30T01:11:31;10.70;76.00
70456;DHT22;57916;51.996;5.180;2023-01-30T01:13:59;10.70;76.00
70456;DHT22;57916;51.996;5.180;2023-01-30T01:16:28;10.70;75.90
70456;DHT22;57916;51.996;5.180;2023-01-30T01:18:57;10.70;75.90
70456;DHT22;57916;51.996;5.180;2023-01-30T01:21:24;10.70;76.00
70456;DHT22;57916;51.996;5.180;2023-01-30T01:23:53;10.70;76.10
70456;DHT22;57916;51.996;5.180;2023-01-30T01:26:20;10.80;76.10
70456;DHT22;57916;51.996;5.180;2023-01-30T01:28:48;10.80;76.10
70456;DHT22;57916;51.996;5.180;2023-01-30T01:31:15;10.80;76.10
70456;DHT22;57916;51.996;5.180;2023-01-30T01:33:43;10.80;76.10
70456;DHT22;57916;51.996;5.180;2023-01-30T01:36:10;10.80;76.10
70456;DHT22;57916;51.996;5.180;2023-01-30T01:38:41;10.80;76.10
70456;DHT22;57916;51.996;5.180;2023-01-30T01:41:13;10.80;76.20
70456;DHT22;57916;51.996;5.180;2023-01-30T01:44:00;10.80;76.20
70456;DHT22;57916;51.996;5.180;2023-01-30T01:46:35;10.80;76.20
70456;DHT22;57916;51.996;5.180;2023-01-30T01:49:07;10.80;76.10
70456;DHT22;57916;51.996;5.180;2023-01-30T01:51:43;10.80;76.10
70456;DHT22;57916;51.996;5.180;2023-01-30T01:54:18;10.80;76.10
70456;DHT22;57916;51.996;5.180;2023-01-30T01:56:48;10.80;76.00
70456;DHT22;57916;51.996;5.180;2023-01-30T01:59:27;10.90;76.00
70456;DHT22;57916;51.996;5.180;2023-01-30T02:02:00;10.90;75.90
70456;DHT22;57916;51.996;5.180;2023-01-30T02:04:30;10.90;75.80
70456;DHT22;57916;51.996;5.180;2023-01-30T02:07:18;10.90;75.90
70456;DHT22;57916;51.996;5.180;2023-01-30T02:09:48;10.90;76.00
70456;DHT22;57916;51.996;5.180;2023-01-30T02:12:16;10.90;76.20
70456;DHT22;57916;51.996;5.180;2023-01-30T02:14:43;10.90;76.20
70456;DHT22;57916;51.996;5.180;2023-01-30T02:17:12;10.90;76.30
70456;DHT22;57916;51.996;5.180;2023-01-30T02:19:50;10.80;76.40
70456;DHT22;57916;51.996;5.180;2023-01-30T02:22:35;10.80;76.50
70456;DHT22;57916;51.996;5.180;2023-01-30T02:28:24;10.80;76.70
70456;DHT22;57916;51.996;5.180;2023-01-30T02:42:03;10.80;77.00
70456;DHT22;57916;51.996;5.180;2023-01-30T02:45:23;10.80;77.00
70456;DHT22;57916;51.996;5.180;2023-01-30T02:48:06;10.80;77.00
70456;DHT22;57916;51.996;5.180;2023-01-30T02:50:44;10.80;77.10
70456;DHT22;57916;51.996;5.180;2023-01-30T02:53:13;10.80;77.10
70456;DHT22;57916;51.996;5.180;2023-01-30T02:55:41;10.80;77.00
70456;DHT22;57916;51.996;5.180;2023-01-30T02:58:09;10.80;77.00
70456;DHT22;57916;51.996;5.180;2023-01-30T03:11:19;10.70;77.20
70456;DHT22;57916;51.996;5.180;2023-01-30T03:16:36;10.70;77.20
70456;DHT22;57916;51.996;5.180;2023-01-30T03:19:09;10.70;77.20
70456;DHT22;57916;51.996;5.180;2023-01-30T03:21:44;10.70;77.20
70456;DHT22;57916;51.996;5.180;2023-01-30T03:24:12;10.70;77.20
70456;DHT22;57916;51.996;5.180;2023-01-30T03:26:44;10.70;77.20
70456;DHT22;57916;51.996;5.180;2023-01-30T03:29:12;10.80;77.30
70456;DHT22;57916;51.996;5.180;2023-01-30T03:31:39;10.80;77.20
70456;DHT22;57916;51.996;5.180;2023-01-30T03:34:07;10.80;77.20
70456;DHT22;57916;51.996;5.180;2023-01-30T03:36:34;10.80;77.20
70456;DHT22;57916;51.996;5.180;2023-01-30T03:39:01;10.80;77.20
70456;DHT22;57916;51.996;5.180;2023-01-30T03:41:27;10.80;77.10
70456;DHT22;57916;51.996;5.180;2023-01-30T03:43:54;10.90;77.10
70456;DHT22;57916;51.996;5.180;2023-01-30T03:46:22;10.90;77.10
70456;DHT22;57916;51.996;5.180;2023-01-30T03:48:49;10.90;77.00
70456;DHT22;57916;51.996;5.180;2023-01-30T03:51:16;10.90;76.90
70456;DHT22;57916;51.996;5.180;2023-01-30T03:53:43;10.90;77.00
70456;DHT22;57916;51.996;5.180;2023-01-30T03:56:11;10.90;77.00
70456;DHT22;57916;51.996;5.180;2023-01-30T03:58:38;10.90;76.90
70456;DHT22;57916;51.996;5.180;2023-01-30T04:01:15;10.90;77.00
70456;DHT22;57916;51.996;5.180;2023-01-30T04:03:42;11.00;77.80
70456;DHT22;57916;51.996;5.180;2023-01-30T04:06:09;11.00;76.90
70456;DHT22;57916;51.996;5.180;2023-01-30T04:08:36;11.00;76.90
70456;DHT22;57916;51.996;5.180;2023-01-30T04:11:04;11.00;77.10
70456;DHT22;57916;51.996;5.180;2023-01-30T04:13:31;11.00;77.20
70456;DHT22;57916;51.996;5.180;2023-01-30T04:16:22;10.90;77.10
70456;DHT22;57916;51.996;5.180;2023-01-30T04:19:08;11.00;77.10
70456;DHT22;57916;51.996;5.180;2023-01-30T04:21:36;11.00;77.00
70456;DHT22;57916;51.996;5.180;2023-01-30T04:24:03;11.10;77.00
70456;DHT22;57916;51.996;5.180;2023-01-30T04:26:30;11.10;76.80
70456;DHT22;57916;51.996;5.180;2023-01-30T04:28:57;11.10;76.70
70456;DHT22;57916;51.996;5.180;2023-01-30T04:31:25;11.10;77.50
70456;DHT22;57916;51.996;5.180;2023-01-30T04:34:18;11.10;76.60
70456;DHT22;57916;51.996;5.180;2023-01-30T04:36:45;11.10;76.40
70456;DHT22;57916;51.996;5.180;2023-01-30T04:39:12;11.10;76.40
70456;DHT22;57916;51.996;5.180;2023-01-30T04:41:39;11.10;76.20
70456;DHT22;57916;51.996;5.180;2023-01-30T04:44:06;11.20;76.20
70456;DHT22;57916;51.996;5.180;2023-01-30T04:46:46;11.20;76.10
70456;DHT22;57916;51.996;5.180;2023-01-30T04:49:13;11.20;75.90
70456;DHT22;57916;51.996;5.180;2023-01-30T04:51:42;11.20;75.80
70456;DHT22;57916;51.996;5.180;2023-01-30T04:54:08;11.20;75.60
70456;DHT22;57916;51.996;5.180;2023-01-30T04:56:35;11.20;75.50
70456;DHT22;57916;51.996;5.180;2023-01-30T04:59:02;11.30;75.40
70456;DHT22;57916;51.996;5.180;2023-01-30T05:01:36;11.20;75.00
70456;DHT22;57916;51.996;5.180;2023-01-30T05:04:04;11.20;74.90
70456;DHT22;57916;51.996;5.180;2023-01-30T05:06:32;11.10;74.70
70456;DHT22;57916;51.996;5.180;2023-01-30T05:09:00;11.10;74.80
70456;DHT22;57916;51.996;5.180;2023-01-30T05:11:28;11.10;74.90
70456;DHT22;57916;51.996;5.180;2023-01-30T05:13:55;11.10;74.80
70456;DHT22;57916;51.996;5.180;2023-01-30T05:16:22;11.10;74.70
70456;DHT22;57916;51.996;5.180;2023-01-30T05:18:49;11.00;74.50
70456;DHT22;57916;51.996;5.180;2023-01-30T05:21:22;11.10;74.20
70456;DHT22;57916;51.996;5.180;2023-01-30T05:23:50;11.10;74.00
70456;DHT22;57916;51.996;5.180;2023-01-30T05:26:18;11.10;73.70
70456;DHT22;57916;51.996;5.180;2023-01-30T05:28:50;11.10;73.40
70456;DHT22;57916;51.996;5.180;2023-01-30T05:31:17;11.00;72.90
70456;DHT22;57916;51.996;5.180;2023-01-30T05:33:46;11.00;72.90
70456;DHT22;57916;51.996;5.180;2023-01-30T05:36:16;11.00;72.70
70456;DHT22;57916;51.996;5.180;2023-01-30T05:38:43;11.00;72.50
70456;DHT22;57916;51.996;5.180;2023-01-30T05:41:12;11.00;72.40
70456;DHT22;57916;51.996;5.180;2023-01-30T05:43:39;11.00;72.20
70456;DHT22;57916;51.996;5.180;2023-01-30T05:46:08;11.10;72.00
70456;DHT22;57916;51.996;5.180;2023-01-30T05:48:35;11.10;71.70
70456;DHT22;57916;51.996;5.180;2023-01-30T05:51:02;11.10;71.50
70456;DHT22;57916;51.996;5.180;2023-01-30T05:53:31;11.00;71.40
70456;DHT22;57916;51.996;5.180;2023-01-30T05:56:04;11.00;71.30
70456;DHT22;57916;51.996;5.180;2023-01-30T05:58:32;11.00;71.20
70456;DHT22;57916;51.996;5.180;2023-01-30T06:01:06;10.90;71.00
70456;DHT22;57916;51.996;5.180;2023-01-30T06:03:37;10.80;71.00
70456;DHT22;57916;51.996;5.180;2023-01-30T06:06:05;10.80;71.10
70456;DHT22;57916;51.996;5.180;2023-01-30T06:08:32;10.70;71.10
70456;DHT22;57916;51.996;5.180;2023-01-30T06:11:03;10.60;72.00
70456;DHT22;57916;51.996;5.180;2023-01-30T06:13:31;10.60;71.20
70456;DHT22;57916;51.996;5.180;2023-01-30T06:15:57;10.50;71.20
70456;DHT22;57916;51.996;5.180;2023-01-30T06:18:25;10.50;71.30
70456;DHT22;57916;51.996;5.180;2023-01-30T06:20:52;10.40;71.10
70456;DHT22;57916;51.996;5.180;2023-01-30T06:23:20;10.40;71.10
70456;DHT22;57916;51.996;5.180;2023-01-30T06:25:50;10.40;71.10
70456;DHT22;57916;51.996;5.180;2023-01-30T06:28:17;10.40;71.10
70456;DHT22;57916;51.996;5.180;2023-01-30T06:30:44;10.30;71.00
70456;DHT22;57916;51.996;5.180;2023-01-30T06:33:11;10.30;71.10
70456;DHT22;57916;51.996;5.180;2023-01-30T06:35:39;10.20;71.00
70456;DHT22;57916;51.996;5.180;2023-01-30T06:38:07;10.20;71.00
70456;DHT22;57916;51.996;5.180;2023-01-30T06:40:37;10.20;71.00
70456;DHT22;57916;51.996;5.180;2023-01-30T06:43:04;10.20;70.90
70456;DHT22;57916;51.996;5.180;2023-01-30T06:45:31;10.10;70.90
70456;DHT22;57916;51.996;5.180;2023-01-30T06:47:58;10.10;70.90
70456;DHT22;57916;51.996;5.180;2023-01-30T06:50:26;10.00;70.80
70456;DHT22;57916;51.996;5.180;2023-01-30T06:52:54;10.00;70.70
70456;DHT22;57916;51.996;5.180;2023-01-30T06:55:24;10.00;70.50
70456;DHT22;57916;51.996;5.180;2023-01-30T06:58:03;10.00;70.50
70456;DHT22;57916;51.996;5.180;2023-01-30T07:00:30;9.90;70.40
70456;DHT22;57916;51.996;5.180;2023-01-30T07:02:58;9.90;70.20
70456;DHT22;57916;51.996;5.180;2023-01-30T07:05:25;9.90;70.00
70456;DHT22;57916;51.996;5.180;2023-01-30T07:07:52;9.90;69.90
70456;DHT22;57916;51.996;5.180;2023-01-30T07:10:18;9.90;69.60
70456;DHT22;57916;51.996;5.180;2023-01-30T07:12:46;9.90;69.40
70456;DHT22;57916;51.996;5.180;2023-01-30T07:15:13;9.90;69.30
70456;DHT22;57916;51.996;5.180;2023-01-30T07:17:40;9.80;69.10
70456;DHT22;57916;51.996;5.180;2023-01-30T07:20:08;9.80;68.90
70456;DHT22;57916;51.996;5.180;2023-01-30T07:22:37;9.80;68.70
70456;DHT22;57916;51.996;5.180;2023-01-30T07:25:04;9.80;68.40
70456;DHT22;57916;51.996;5.180;2023-01-30T07:27:31;9.80;68.20
70456;DHT22;57916;51.996;5.180;2023-01-30T07:29:58;9.80;67.90
70456;DHT22;57916;51.996;5.180;2023-01-30T07:32:25;9.80;67.60
70456;DHT22;57916;51.996;5.180;2023-01-30T07:34:52;9.80;67.40
70456;DHT22;57916;51.996;5.180;2023-01-30T07:37:19;9.80;67.50
70456;DHT22;57916;51.996;5.180;2023-01-30T07:39:45;9.80;67.40
70456;DHT22;57916;51.996;5.180;2023-01-30T07:42:12;9.80;67.20
70456;DHT22;57916;51.996;5.180;2023-01-30T07:44:39;9.80;67.60
70456;DHT22;57916;51.996;5.180;2023-01-30T07:47:06;9.70;67.20
70456;DHT22;57916;51.996;5.180;2023-01-30T07:49:33;9.70;67.10
70456;DHT22;57916;51.996;5.180;2023-01-30T07:51:59;9.70;67.10
70456;DHT22;57916;51.996;5.180;2023-01-30T07:54:26;9.80;67.00
70456;DHT22;57916;51.996;5.180;2023-01-30T07:56:53;9.80;67.00
70456;DHT22;57916;51.996;5.180;2023-01-30T07:59:20;9.80;67.00
70456;DHT22;57916;51.996;5.180;2023-01-30T08:01:46;9.80;67.00
70456;DHT22;57916;51.996;5.180;2023-01-30T08:04:13;9.80;66.90
70456;DHT22;57916;51.996;5.180;2023-01-30T08:06:40;9.90;67.00
70456;DHT22;57916;51.996;5.180;2023-01-30T08:09:07;9.90;67.00
70456;DHT22;57916;51.996;5.180;2023-01-30T08:11:34;9.90;67.00
70456;DHT22;57916;51.996;5.180;2023-01-30T08:14:01;9.90;66.90
70456;DHT22;57916;51.996;5.180;2023-01-30T08:16:28;9.90;66.90
70456;DHT22;57916;51.996;5.180;2023-01-30T08:18:57;10.00;66.90
70456;DHT22;57916;51.996;5.180;2023-01-30T08:21:24;10.00;66.90
70456;DHT22;57916;51.996;5.180;2023-01-30T08:23:51;10.00;67.00
70456;DHT22;57916;51.996;5.180;2023-01-30T08:26:19;10.00;66.90
70456;DHT22;57916;51.996;5.180;2023-01-30T08:28:46;10.00;67.00
70456;DHT22;57916;51.996;5.180;2023-01-30T08:31:14;10.00;67.00
70456;DHT22;57916;51.996;5.180;2023-01-30T08:33:42;10.00;66.90
70456;DHT22;57916;51.996;5.180;2023-01-30T08:36:09;10.10;67.00
70456;DHT22;57916;51.996;5.180;2023-01-30T08:38:36;10.10;67.00
70456;DHT22;57916;51.996;5.180;2023-01-30T08:41:06;10.20;66.90
70456;DHT22;57916;51.996;5.180;2023-01-30T08:43:34;10.20;66.70
70456;DHT22;57916;51.996;5.180;2023-01-30T08:46:00;10.20;66.40
70456;DHT22;57916;51.996;5.180;2023-01-30T08:48:27;10.30;66.30
70456;DHT22;57916;51.996;5.180;2023-01-30T08:51:05;10.30;66.40
70456;DHT22;57916;51.996;5.180;2023-01-30T08:53:32;10.30;66.40
70456;DHT22;57916;51.996;5.180;2023-01-30T08:55:59;10.40;66.30
70456;DHT22;57916;51.996;5.180;2023-01-30T08:58:26;10.50;66.40
70456;DHT22;57916;51.996;5.180;2023-01-30T09:00:52;10.50;66.60
70456;DHT22;57916;51.996;5.180;2023-01-30T09:03:19;10.60;66.40
70456;DHT22;57916;51.996;5.180;2023-01-30T09:05:46;10.70;66.10
70456;DHT22;57916;51.996;5.180;2023-01-30T09:08:13;10.80;65.80
70456;DHT22;57916;51.996;5.180;2023-01-30T09:10:40;10.80;65.80
70456;DHT22;57916;51.996;5.180;2023-01-30T09:13:10;10.80;65.70
70456;DHT22;57916;51.996;5.180;2023-01-30T09:15:36;10.80;65.50
70456;DHT22;57916;51.996;5.180;2023-01-30T09:18:03;10.80;65.70
70456;DHT22;57916;51.996;5.180;2023-01-30T09:20:30;10.80;65.60
70456;DHT22;57916;51.996;5.180;2023-01-30T09:23:00;10.80;65.60
70456;DHT22;57916;51.996;5.180;2023-01-30T09:25:27;10.90;65.40
70456;DHT22;57916;51.996;5.180;2023-01-30T09:27:54;10.90;65.30
70456;DHT22;57916;51.996;5.180;2023-01-30T09:30:21;10.80;65.20
70456;DHT22;57916;51.996;5.180;2023-01-30T09:32:47;10.90;65.30
70456;DHT22;57916;51.996;5.180;2023-01-30T09:35:14;10.90;65.30
70456;DHT22;57916;51.996;5.180;2023-01-30T09:37:48;11.00;65.10
70456;DHT22;57916;51.996;5.180;2023-01-30T09:40:22;11.00;65.10
70456;DHT22;57916;51.996;5.180;2023-01-30T09:43:13;11.00;64.80
70456;DHT22;57916;51.996;5.180;2023-01-30T09:48:29;11.10;64.90
70456;DHT22;57916;51.996;5.180;2023-01-30T09:51:24;11.00;65.00
70456;DHT22;57916;51.996;5.180;2023-01-30T09:54:12;11.10;65.00
70456;DHT22;57916;51.996;5.180;2023-01-30T09:56:41;11.10;65.00
70456;DHT22;57916;51.996;5.180;2023-01-30T09:59:26;11.10;65.20
70456;DHT22;57916;51.996;5.180;2023-01-30T10:04:37;11.30;64.80
70456;DHT22;57916;51.996;5.180;2023-01-30T10:07:35;11.30;64.70
70456;DHT22;57916;51.996;5.180;2023-01-30T10:10:35;11.40;64.50
70456;DHT22;57916;51.996;5.180;2023-01-30T10:13:27;11.30;64.40
70456;DHT22;57916;51.996;5.180;2023-01-30T10:21:49;11.30;64.10
70456;DHT22;57916;51.996;5.180;2023-01-30T10:24:36;11.30;64.40
70456;DHT22;57916;51.996;5.180;2023-01-30T10:27:10;11.30;64.20
70456;DHT22;57916;51.996;5.180;2023-01-30T10:29:42;11.30;64.30
70456;DHT22;57916;51.996;5.180;2023-01-30T10:34:46;11.40;64.20
70456;DHT22;57916;51.996;5.180;2023-01-30T10:37:29;11.40;63.90
70456;DHT22;57916;51.996;5.180;2023-01-30T10:40:24;11.50;64.00
70456;DHT22;57916;51.996;5.180;2023-01-30T10:43:01;11.50;63.70
70456;DHT22;57916;51.996;5.180;2023-01-30T10:46:12;11.60;64.20
70456;DHT22;57916;51.996;5.180;2023-01-30T10:51:51;11.80;63.50
70456;DHT22;57916;51.996;5.180;2023-01-30T10:54:48;11.80;63.30
70456;DHT22;57916;51.996;5.180;2023-01-30T11:00:07;11.80;63.10
70456;DHT22;57916;51.996;5.180;2023-01-30T11:05:36;11.70;62.80
70456;DHT22;57916;51.996;5.180;2023-01-30T11:08:20;11.70;63.10
70456;DHT22;57916;51.996;5.180;2023-01-30T11:10:48;11.70;63.20
70456;DHT22;57916;51.996;5.180;2023-01-30T11:13:16;11.70;63.00
70456;DHT22;57916;51.996;5.180;2023-01-30T11:15:45;11.70;63.80
70456;DHT22;57916;51.996;5.180;2023-01-30T11:18:13;11.70;63.00
70456;DHT22;57916;51.996;5.180;2023-01-30T11:21:07;11.70;62.90
70456;DHT22;57916;51.996;5.180;2023-01-30T11:23:40;11.70;63.00
70456;DHT22;57916;51.996;5.180;2023-01-30T11:26:20;11.80;63.40
70456;DHT22;57916;51.996;5.180;2023-01-30T11:28:48;11.80;62.80
70456;DHT22;57916;51.996;5.180;2023-01-30T11:31:26;11.90;62.60
70456;DHT22;57916;51.996;5.180;2023-01-30T11:34:18;11.80;62.40
70456;DHT22;57916;51.996;5.180;2023-01-30T11:36:45;11.80;62.60
70456;DHT22;57916;51.996;5.180;2023-01-30T11:41:56;11.80;62.90
70456;DHT22;57916;51.996;5.180;2023-01-30T11:44:39;11.90;63.10
70456;DHT22;57916;51.996;5.180;2023-01-30T11:47:12;12.00;62.80
70456;DHT22;57916;51.996;5.180;2023-01-30T11:49:44;12.00;62.40
70456;DHT22;57916;51.996;5.180;2023-01-30T11:52:35;12.00;62.40
70456;DHT22;57916;51.996;5.180;2023-01-30T11:55:06;12.10;62.30
70456;DHT22;57916;51.996;5.180;2023-01-30T11:57:57;12.20;62.10
70456;DHT22;57916;51.996;5.180;2023-01-30T12:00:41;12.20;61.80
70456;DHT22;57916;51.996;5.180;2023-01-30T12:03:11;12.30;61.60
70456;DHT22;57916;51.996;5.180;2023-01-30T12:05:40;12.40;61.30
70456;DHT22;57916;51.996;5.180;2023-01-30T12:10:43;12.40;60.90
70456;DHT22;57916;51.996;5.180;2023-01-30T12:13:21;12.40;60.50
70456;DHT22;57916;51.996;5.180;2023-01-30T12:21:51;12.30;60.50
70456;DHT22;57916;51.996;5.180;2023-01-30T12:24:25;12.30;60.40
70456;DHT22;57916;51.996;5.180;2023-01-30T12:26:57;12.30;60.60
70456;DHT22;57916;51.996;5.180;2023-01-30T12:29:35;12.30;60.60
70456;DHT22;57916;51.996;5.180;2023-01-30T12:34:35;12.20;61.10
70456;DHT22;57916;51.996;5.180;2023-01-30T12:45:28;12.30;61.40
70456;DHT22;57916;51.996;5.180;2023-01-30T13:05:33;12.60;61.10
70456;DHT22;57916;51.996;5.180;2023-01-30T13:08:08;12.60;61.10
70456;DHT22;57916;51.996;5.180;2023-01-30T13:19:46;12.60;60.30
70456;DHT22;57916;51.996;5.180;2023-01-30T13:22:19;12.50;60.50
70456;DHT22;57916;51.996;5.180;2023-01-30T13:25:07;12.50;60.50
70456;DHT22;57916;51.996;5.180;2023-01-30T13:27:39;12.40;60.40
70456;DHT22;57916;51.996;5.180;2023-01-30T13:30:14;12.40;60.80
70456;DHT22;57916;51.996;5.180;2023-01-30T13:32:51;12.40;60.50
70456;DHT22;57916;51.996;5.180;2023-01-30T13:35:28;12.30;60.30
70456;DHT22;57916;51.996;5.180;2023-01-30T13:37:57;12.30;60.60
70456;DHT22;57916;51.996;5.180;2023-01-30T13:40:39;12.30;60.60
70456;DHT22;57916;51.996;5.180;2023-01-30T13:43:30;12.30;60.80
70456;DHT22;57916;51.996;5.180;2023-01-30T13:46:07;12.20;60.50
70456;DHT22;57916;51.996;5.180;2023-01-30T14:02:12;12.20;61.50
70456;DHT22;57916;51.996;5.180;2023-01-30T14:04:47;12.20;61.70
70456;DHT22;57916;51.996;5.180;2023-01-30T14:07:17;12.20;61.60
70456;DHT22;57916;51.996;5.180;2023-01-30T14:10:16;12.20;62.00
70456;DHT22;57916;51.996;5.180;2023-01-30T14:12:48;12.20;62.00
70456;DHT22;57916;51.996;5.180;2023-01-30T14:20:24;12.20;62.20
70456;DHT22;57916;51.996;5.180;2023-01-30T14:22:54;12.20;62.10
70456;DHT22;57916;51.996;5.180;2023-01-30T14:33:32;12.30;61.70
70456;DHT22;57916;51.996;5.180;2023-01-30T14:38:36;12.20;61.60
70456;DHT22;57916;51.996;5.180;2023-01-30T15:10:22;12.00;62.00
70456;DHT22;57916;51.996;5.180;2023-01-30T15:13:10;12.00;62.10
70456;DHT22;57916;51.996;5.180;2023-01-30T15:15:49;11.90;61.90
70456;DHT22;57916;51.996;5.180;2023-01-30T15:32:30;11.80;62.50
70456;DHT22;57916;51.996;5.180;2023-01-30T15:42:43;12.00;63.50
70456;DHT22;57916;51.996;5.180;2023-01-30T15:48:27;12.00;62.40
70456;DHT22;57916;51.996;5.180;2023-01-30T15:50:58;12.00;62.40
70456;DHT22;57916;51.996;5.180;2023-01-30T15:53:34;12.00;62.40
70456;DHT22;57916;51.996;5.180;2023-01-30T15:56:06;12.00;62.30
70456;DHT22;57916;51.996;5.180;2023-01-30T15:58:38;12.00;62.50
70456;DHT22;57916;51.996;5.180;2023-01-30T16:01:06;12.00;62.40
70456;DHT22;57916;51.996;5.180;2023-01-30T16:03:40;12.00;62.30
70456;DHT22;57916;51.996;5.180;2023-01-30T16:06:32;12.00;62.30
70456;DHT22;57916;51.996;5.180;2023-01-30T16:09:00;11.90;62.30
70456;DHT22;57916;51.996;5.180;2023-01-30T16:11:45;11.90;62.30
70456;DHT22;57916;51.996;5.180;2023-01-30T16:14:13;11.80;62.10
70456;DHT22;57916;51.996;5.180;2023-01-30T16:17:18;11.80;62.20
70456;DHT22;57916;51.996;5.180;2023-01-30T16:19:38;11.70;62.50
70456;DHT22;57916;51.996;5.180;2023-01-30T16:22:15;11.70;62.50
70456;DHT22;57916;51.996;5.180;2023-01-30T16:24:45;11.70;62.70
70456;DHT22;57916;51.996;5.180;2023-01-30T16:27:26;11.70;63.60
70456;DHT22;57916;51.996;5.180;2023-01-30T16:30:01;11.60;64.60
70456;DHT22;57916;51.996;5.180;2023-01-30T16:32:33;11.50;64.90
70456;DHT22;57916;51.996;5.180;2023-01-30T16:35:28;11.40;65.10
70456;DHT22;57916;51.996;5.180;2023-01-30T16:38:00;11.30;64.70
70456;DHT22;57916;51.996;5.180;2023-01-30T16:40:30;11.20;64.20
70456;DHT22;57916;51.996;5.180;2023-01-30T16:43:19;11.20;64.30
70456;DHT22;57916;51.996;5.180;2023-01-30T16:50:46;11.00;64.00
70456;DHT22;57916;51.996;5.180;2023-01-30T16:53:18;11.00;64.20
70456;DHT22;57916;51.996;5.180;2023-01-30T16:55:56;11.00;64.60
70456;DHT22;57916;51.996;5.180;2023-01-30T16:58:26;10.90;65.20
70456;DHT22;57916;51.996;5.180;2023-01-30T17:01:03;10.90;65.60
70456;DHT22;57916;51.996;5.180;2023-01-30T17:03:36;10.90;65.90
70456;DHT22;57916;51.996;5.180;2023-01-30T17:06:06;10.80;66.00
70456;DHT22;57916;51.996;5.180;2023-01-30T17:08:52;10.80;66.00
70456;DHT22;57916;51.996;5.180;2023-01-30T17:11:32;10.80;66.00
70456;DHT22;57916;51.996;5.180;2023-01-30T17:14:19;10.70;66.20
70456;DHT22;57916;51.996;5.180;2023-01-30T17:16:59;10.70;66.30
70456;DHT22;57916;51.996;5.180;2023-01-30T17:19:26;10.70;66.30
70456;DHT22;57916;51.996;5.180;2023-01-30T17:21:54;10.70;66.30
70456;DHT22;57916;51.996;5.180;2023-01-30T17:24:23;10.70;66.10
70456;DHT22;57916;51.996;5.180;2023-01-30T17:26:56;10.70;66.50
70456;DHT22;57916;51.996;5.180;2023-01-30T17:29:25;10.70;66.50
70456;DHT22;57916;51.996;5.180;2023-01-30T17:32:10;10.70;66.50
70456;DHT22;57916;51.996;5.180;2023-01-30T17:34:38;10.60;66.50
70456;DHT22;57916;51.996;5.180;2023-01-30T17:37:17;10.70;66.50
70456;DHT22;57916;51.996;5.180;2023-01-30T17:39:46;10.70;66.20
70456;DHT22;57916;51.996;5.180;2023-01-30T17:42:14;10.70;65.90
70456;DHT22;57916;51.996;5.180;2023-01-30T17:44:41;10.70;65.70
70456;DHT22;57916;51.996;5.180;2023-01-30T17:47:11;10.70;65.40
70456;DHT22;57916;51.996;5.180;2023-01-30T17:49:38;10.70;65.30
70456;DHT22;57916;51.996;5.180;2023-01-30T17:52:05;10.70;65.10
70456;DHT22;57916;51.996;5.180;2023-01-30T17:54:32;10.70;65.20
70456;DHT22;57916;51.996;5.180;2023-01-30T17:57:01;10.60;65.30
70456;DHT22;57916;51.996;5.180;2023-01-30T17:59:29;10.70;65.20
70456;DHT22;57916;51.996;5.180;2023-01-30T18:01:56;10.70;65.20
70456;DHT22;57916;51.996;5.180;2023-01-30T18:04:24;10.70;65.20
70456;DHT22;57916;51.996;5.180;2023-01-30T18:06:59;10.60;65.20
70456;DHT22;57916;51.996;5.180;2023-01-30T18:09:29;10.70;65.10
70456;DHT22;57916;51.996;5.180;2023-01-30T18:11:56;10.70;65.10
70456;DHT22;57916;51.996;5.180;2023-01-30T18:14:23;10.60;65.10
70456;DHT22;57916;51.996;5.180;2023-01-30T18:16:50;10.60;65.10
70456;DHT22;57916;51.996;5.180;2023-01-30T18:19:17;10.50;65.30
70456;DHT22;57916;51.996;5.180;2023-01-30T18:21:49;10.40;65.40
70456;DHT22;57916;51.996;5.180;2023-01-30T18:24:16;10.40;65.70
70456;DHT22;57916;51.996;5.180;2023-01-30T18:26:44;10.30;65.70
70456;DHT22;57916;51.996;5.180;2023-01-30T18:29:11;10.30;65.70
70456;DHT22;57916;51.996;5.180;2023-01-30T18:31:39;10.30;65.50
70456;DHT22;57916;51.996;5.180;2023-01-30T18:34:08;10.30;65.70
70456;DHT22;57916;51.996;5.180;2023-01-30T18:36:36;10.30;66.00
70456;DHT22;57916;51.996;5.180;2023-01-30T18:39:03;10.20;65.90
70456;DHT22;57916;51.996;5.180;2023-01-30T18:41:30;10.10;66.00
70456;DHT22;57916;51.996;5.180;2023-01-30T18:44:03;10.00;66.20
70456;DHT22;57916;51.996;5.180;2023-01-30T18:46:31;9.90;66.40
70456;DHT22;57916;51.996;5.180;2023-01-30T18:48:58;9.90;66.80
70456;DHT22;57916;51.996;5.180;2023-01-30T18:51:30;9.80;67.20
70456;DHT22;57916;51.996;5.180;2023-01-30T18:53:59;9.80;67.50
70456;DHT22;57916;51.996;5.180;2023-01-30T18:56:29;9.70;67.50
70456;DHT22;57916;51.996;5.180;2023-01-30T18:58:58;9.70;67.60
70456;DHT22;57916;51.996;5.180;2023-01-30T19:01:29;9.70;67.80
70456;DHT22;57916;51.996;5.180;2023-01-30T19:03:58;9.70;67.80
70456;DHT22;57916;51.996;5.180;2023-01-30T19:06:27;9.70;67.80
70456;DHT22;57916;51.996;5.180;2023-01-30T19:08:55;9.70;67.80